sensor_id;sensor_type;location;lat;lon;timestamp;temperature;humidity
16999;DHT22;10211;49.476;11.010;2023-07-28T00:00:43;16.50;99.90
16999;DHT22;10211;49.476;11.010;2023-07-28T00:03:10;16.50;99.90
16999;DHT22;10211;49.476;11.010;2023-07-28T00:05:36;16.40;99.90
16999;DHT22;10211;49.476;11.010;2023-07-28T00:08:03;16.60;99.90
16999;DHT22;10211;49.476;11.010;2023-07-28T00:10:30;16.40;99.90
16999;DHT22;10211;49.476;11.010;2023-07-28T00:12:59;16.50;99.90
16999;DHT22;10211;49.476;11.010;2023-07-28T00:15:27;16.40;99.90
16999;DHT22;10211;49.476;11.010;2023-07-28T00:17:54;16.40;99.90
16999;DHT22;10211;49.476;11.010;2023-07-28T00:20:21;16.40;99.90
16999;DHT22;10211;49.476;11.010;2023-07-28T00:22:48;16.40;99.90
16999;DHT22;10211;49.476;11.010;2023-07-28T00:25:14;16.40;99.90
16999;DHT22;10211;49.476;11.010;2023-07-28T00:27:41;16.40;99.90
16999;DHT22;10211;49.476;11.010;2023-07-28T00:30:11;16.40;99.90
16999;DHT22;10211;49.476;11.010;2023-07-28T00:32:38;16.40;99.90
16999;DHT22;10211;49.476;11.010;2023-07-28T00:35:05;16.40;99.90
16999;DHT22;10211;49.476;11.010;2023-07-28T00:37:32;16.40;99.90
16999;DHT22;10211;49.476;11.010;2023-07-28T00:39:59;16.40;99.90
16999;DHT22;10211;49.476;11.010;2023-07-28T00:42:26;16.40;99.90
16999;DHT22;10211;49.476;11.010;2023-07-28T00:44:52;16.30;99.90
16999;DHT22;10211;49.476;11.010;2023-07-28T00:47:21;16.30;99.90
16999;DHT22;10211;49.476;11.010;2023-07-28T00:49:47;16.30;99.90
16999;DHT22;10211;49.476;11.010;2023-07-28T00:52:14;16.40;99.90
16999;DHT22;10211;49.476;11.010;2023-07-28T00:54:41;16.40;99.90
16999;DHT22;10211;49.476;11.010;2023-07-28T00:57:08;16.30;99.90
16999;DHT22;10211;49.476;11.010;2023-07-28T00:59:35;16.30;99.90
16999;DHT22;10211;49.476;11.010;2023-07-28T01:02:02;16.30;99.90
16999;DHT22;10211;49.476;11.010;2023-07-28T01:04:30;16.40;99.90
16999;DHT22;10211;49.476;11.010;2023-07-28T01:07:03;16.30;99.90
16999;DHT22;10211;49.476;11.010;2023-07-28T01:09:37;16.40;99.90
16999;DHT22;10211;49.476;11.010;2023-07-28T01:12:07;16.40;99.90
16999;DHT22;10211;49.476;11.010;2023-07-28T01:14:34;16.40;99.90
16999;DHT22;10211;49.476;11.010;2023-07-28T01:17:01;16.40;99.90
16999;DHT22;10211;49.476;11.010;2023-07-28T01:19:30;16.30;99.90
16999;DHT22;10211;49.476;11.010;2023-07-28T01:22:10;16.30;99.90
16999;DHT22;10211;49.476;11.010;2023-07-28T01:24:45;16.40;99.90
16999;DHT22;10211;49.476;11.010;2023-07-28T01:27:18;16.90;99.90
16999;DHT22;10211;49.476;11.010;2023-07-28T01:29:45;16.50;99.90
16999;DHT22;10211;49.476;11.010;2023-07-28T01:32:13;16.30;99.90
16999;DHT22;10211;49.476;11.010;2023-07-28T01:34:40;16.30;99.90
16999;DHT22;10211;49.476;11.010;2023-07-28T01:37:07;16.30;99.90
16999;DHT22;10211;49.476;11.010;2023-07-28T01:39:34;16.30;99.90
16999;DHT22;10211;49.476;11.010;2023-07-28T01:42:00;16.30;99.90
16999;DHT22;10211;49.476;11.010;2023-07-28T01:44:28;16.30;99.90
16999;DHT22;10211;49.476;11.010;2023-07-28T01:46:55;16.30;99.90
16999;DHT22;10211;49.476;11.010;2023-07-28T01:49:22;16.30;99.90
16999;DHT22;10211;49.476;11.010;2023-07-28T01:51:49;16.30;99.90
16999;DHT22;10211;49.476;11.010;2023-07-28T01:54:15;16.30;99.90
16999;DHT22;10211;49.476;11.010;2023-07-28T01:56:42;16.30;99.90
16999;DHT22;10211;49.476;11.010;2023-07-28T01:59:09;16.50;99.90
16999;DHT22;10211;49.476;11.010;2023-07-28T02:01:37;16.30;99.90
16999;DHT22;10211;49.476;11.010;2023-07-28T02:04:03;16.30;99.90
16999;DHT22;10211;49.476;11.010;2023-07-28T02:06:31;16.30;99.90
16999;DHT22;10211;49.476;11.010;2023-07-28T02:08:58;16.30;99.90
16999;DHT22;10211;49.476;11.010;2023-07-28T02:11:24;16.30;99.90
16999;DHT22;10211;49.476;11.010;2023-07-28T02:13:51;16.30;99.90
16999;DHT22;10211;49.476;11.010;2023-07-28T02:16:18;16.30;99.90
16999;DHT22;10211;49.476;11.010;2023-07-28T02:18:46;16.50;99.90
16999;DHT22;10211;49.476;11.010;2023-07-28T02:21:12;16.30;99.90
16999;DHT22;10211;49.476;11.010;2023-07-28T02:23:39;16.30;99.90
16999;DHT22;10211;49.476;11.010;2023-07-28T02:26:06;16.40;99.90
16999;DHT22;10211;49.476;11.010;2023-07-28T02:28:33;16.30;99.90
16999;DHT22;10211;49.476;11.010;2023-07-28T02:30:59;16.20;99.90
16999;DHT22;10211;49.476;11.010;2023-07-28T02:33:27;16.20;99.90
16999;DHT22;10211;49.476;11.010;2023-07-28T02:35:56;16.20;99.90
16999;DHT22;10211;49.476;11.010;2023-07-28T02:38:22;16.30;99.90
16999;DHT22;10211;49.476;11.010;2023-07-28T02:40:49;16.30;99.90
16999;DHT22;10211;49.476;11.010;2023-07-28T02:43:16;16.30;99.90
16999;DHT22;10211;49.476;11.010;2023-07-28T02:45:43;16.30;99.90
16999;DHT22;10211;49.476;11.010;2023-07-28T02:48:10;16.30;99.90
16999;DHT22;10211;49.476;11.010;2023-07-28T02:50:36;16.30;99.90
16999;DHT22;10211;49.476;11.010;2023-07-28T02:53:05;16.30;99.90
16999;DHT22;10211;49.476;11.010;2023-07-28T02:55:32;16.30;99.90
16999;DHT22;10211;49.476;11.010;2023-07-28T02:57:58;16.30;99.90
16999;DHT22;10211;49.476;11.010;2023-07-28T03:00:25;16.30;99.90
16999;DHT22;10211;49.476;11.010;2023-07-28T03:02:52;16.30;99.90
16999;DHT22;10211;49.476;11.010;2023-07-28T03:05:18;16.30;99.90
16999;DHT22;10211;49.476;11.010;2023-07-28T03:07:47;16.30;99.90
16999;DHT22;10211;49.476;11.010;2023-07-28T03:10:15;16.30;99.90
16999;DHT22;10211;49.476;11.010;2023-07-28T03:12:42;16.30;99.90
16999;DHT22;10211;49.476;11.010;2023-07-28T03:15:09;16.30;99.90
16999;DHT22;10211;49.476;11.010;2023-07-28T03:17:36;16.30;99.90
16999;DHT22;10211;49.476;11.010;2023-07-28T03:20:03;16.30;99.90
16999;DHT22;10211;49.476;11.010;2023-07-28T03:22:30;16.30;99.90
16999;DHT22;10211;49.476;11.010;2023-07-28T03:24:57;16.30;99.90
16999;DHT22;10211;49.476;11.010;2023-07-28T03:27:25;16.30;99.90
16999;DHT22;10211;49.476;11.010;2023-07-28T03:29:52;16.30;99.90
16999;DHT22;10211;49.476;11.010;2023-07-28T03:32:18;16.30;99.90
16999;DHT22;10211;49.476;11.010;2023-07-28T03:34:45;16.30;99.90
16999;DHT22;10211;49.476;11.010;2023-07-28T03:37:12;16.40;99.90
16999;DHT22;10211;49.476;11.010;2023-07-28T03:39:38;16.40;99.90
16999;DHT22;10211;49.476;11.010;2023-07-28T03:42:05;16.40;99.90
16999;DHT22;10211;49.476;11.010;2023-07-28T03:44:34;16.40;99.90
16999;DHT22;10211;49.476;11.010;2023-07-28T03:47:03;16.40;99.90
16999;DHT22;10211;49.476;11.010;2023-07-28T03:49:30;16.40;99.90
16999;DHT22;10211;49.476;11.010;2023-07-28T03:51:56;16.40;99.90
16999;DHT22;10211;49.476;11.010;2023-07-28T03:54:23;16.40;99.90
16999;DHT22;10211;49.476;11.010;2023-07-28T03:56:50;16.40;99.90
16999;DHT22;10211;49.476;11.010;2023-07-28T03:59:17;16.40;99.90
16999;DHT22;10211;49.476;11.010;2023-07-28T04:01:45;16.40;99.90
16999;DHT22;10211;49.476;11.010;2023-07-28T04:04:13;16.40;99.90
16999;DHT22;10211;49.476;11.010;2023-07-28T04:06:40;16.40;99.90
16999;DHT22;10211;49.476;11.010;2023-07-28T04:09:07;16.40;99.90
16999;DHT22;10211;49.476;11.010;2023-07-28T04:11:34;16.40;99.90
16999;DHT22;10211;49.476;11.010;2023-07-28T04:14:02;16.50;99.90
16999;DHT22;10211;49.476;11.010;2023-07-28T04:16:29;16.40;99.90
16999;DHT22;10211;49.476;11.010;2023-07-28T04:18:57;16.30;99.90
16999;DHT22;10211;49.476;11.010;2023-07-28T04:21:24;16.50;99.90
16999;DHT22;10211;49.476;11.010;2023-07-28T04:23:51;16.50;99.90
16999;DHT22;10211;49.476;11.010;2023-07-28T04:26:18;16.50;99.90
16999;DHT22;10211;49.476;11.010;2023-07-28T04:28:45;16.60;99.90
16999;DHT22;10211;49.476;11.010;2023-07-28T04:31:12;16.50;99.90
16999;DHT22;10211;49.476;11.010;2023-07-28T04:33:41;16.60;99.90
16999;DHT22;10211;49.476;11.010;2023-07-28T04:36:10;16.60;99.90
16999;DHT22;10211;49.476;11.010;2023-07-28T04:38:36;16.50;99.90
16999;DHT22;10211;49.476;11.010;2023-07-28T04:41:03;16.70;99.90
16999;DHT22;10211;49.476;11.010;2023-07-28T04:43:30;16.70;99.90
16999;DHT22;10211;49.476;11.010;2023-07-28T04:45:56;16.70;99.90
16999;DHT22;10211;49.476;11.010;2023-07-28T04:48:23;16.70;99.90
16999;DHT22;10211;49.476;11.010;2023-07-28T04:50:50;16.70;99.90
16999;DHT22;10211;49.476;11.010;2023-07-28T04:53:18;16.80;99.90
16999;DHT22;10211;49.476;11.010;2023-07-28T04:55:44;16.70;99.90
16999;DHT22;10211;49.476;11.010;2023-07-28T04:58:11;16.70;99.90
16999;DHT22;10211;49.476;11.010;2023-07-28T05:00:38;16.70;99.90
16999;DHT22;10211;49.476;11.010;2023-07-28T05:03:05;16.80;99.90
16999;DHT22;10211;49.476;11.010;2023-07-28T05:05:32;16.80;99.90
16999;DHT22;10211;49.476;11.010;2023-07-28T05:07:58;16.90;99.90
16999;DHT22;10211;49.476;11.010;2023-07-28T05:10:26;16.90;99.90
16999;DHT22;10211;49.476;11.010;2023-07-28T05:12:53;17.10;99.90
16999;DHT22;10211;49.476;11.010;2023-07-28T05:15:20;17.00;99.90
16999;DHT22;10211;49.476;11.010;2023-07-28T05:17:46;16.90;99.90
16999;DHT22;10211;49.476;11.010;2023-07-28T05:20:13;17.00;99.90
16999;DHT22;10211;49.476;11.010;2023-07-28T05:22:41;17.10;99.90
16999;DHT22;10211;49.476;11.010;2023-07-28T05:25:08;17.20;99.90
16999;DHT22;10211;49.476;11.010;2023-07-28T05:27:36;17.20;99.90
16999;DHT22;10211;49.476;11.010;2023-07-28T05:30:04;17.20;99.90
16999;DHT22;10211;49.476;11.010;2023-07-28T05:32:31;17.20;99.90
16999;DHT22;10211;49.476;11.010;2023-07-28T05:34:58;17.20;99.90
16999;DHT22;10211;49.476;11.010;2023-07-28T05:37:25;17.20;99.90
16999;DHT22;10211;49.476;11.010;2023-07-28T05:39:52;17.20;99.90
16999;DHT22;10211;49.476;11.010;2023-07-28T05:42:18;17.30;99.90
16999;DHT22;10211;49.476;11.010;2023-07-28T05:44:46;17.30;99.90
16999;DHT22;10211;49.476;11.010;2023-07-28T05:47:13;17.40;99.90
16999;DHT22;10211;49.476;11.010;2023-07-28T05:49:40;17.40;99.90
16999;DHT22;10211;49.476;11.010;2023-07-28T05:52:07;17.40;99.90
16999;DHT22;10211;49.476;11.010;2023-07-28T05:54:34;17.50;99.90
16999;DHT22;10211;49.476;11.010;2023-07-28T05:57:00;17.30;99.90
16999;DHT22;10211;49.476;11.010;2023-07-28T05:59:27;17.50;99.90
16999;DHT22;10211;49.476;11.010;2023-07-28T06:01:56;17.60;99.90
16999;DHT22;10211;49.476;11.010;2023-07-28T06:04:23;17.60;99.90
16999;DHT22;10211;49.476;11.010;2023-07-28T06:06:49;18.00;99.90
16999;DHT22;10211;49.476;11.010;2023-07-28T06:09:16;17.60;99.90
16999;DHT22;10211;49.476;11.010;2023-07-28T06:11:43;17.70;99.90
16999;DHT22;10211;49.476;11.010;2023-07-28T06:14:10;17.80;99.90
16999;DHT22;10211;49.476;11.010;2023-07-28T06:16:36;17.70;99.90
16999;DHT22;10211;49.476;11.010;2023-07-28T06:19:05;17.80;99.90
16999;DHT22;10211;49.476;11.010;2023-07-28T06:21:32;17.90;99.90
16999;DHT22;10211;49.476;11.010;2023-07-28T06:23:58;18.10;99.90
16999;DHT22;10211;49.476;11.010;2023-07-28T06:26:25;18.20;99.90
16999;DHT22;10211;49.476;11.010;2023-07-28T06:28:52;18.40;99.90
16999;DHT22;10211;49.476;11.010;2023-07-28T06:31:19;18.40;99.90
16999;DHT22;10211;49.476;11.010;2023-07-28T06:33:47;18.50;99.90
16999;DHT22;10211;49.476;11.010;2023-07-28T06:36:15;18.50;99.90
16999;DHT22;10211;49.476;11.010;2023-07-28T06:38:43;18.50;99.90
16999;DHT22;10211;49.476;11.010;2023-07-28T06:41:13;18.60;99.90
16999;DHT22;10211;49.476;11.010;2023-07-28T06:43:40;18.40;99.90
16999;DHT22;10211;49.476;11.010;2023-07-28T06:46:07;18.30;99.90
16999;DHT22;10211;49.476;11.010;2023-07-28T06:48:33;18.20;99.90
16999;DHT22;10211;49.476;11.010;2023-07-28T06:51:00;18.10;99.90
16999;DHT22;10211;49.476;11.010;2023-07-28T06:53:28;18.20;99.90
16999;DHT22;10211;49.476;11.010;2023-07-28T06:55:55;18.20;99.90
16999;DHT22;10211;49.476;11.010;2023-07-28T06:58:22;18.10;99.90
16999;DHT22;10211;49.476;11.010;2023-07-28T07:00:48;18.20;99.90
16999;DHT22;10211;49.476;11.010;2023-07-28T07:03:15;18.10;99.90
16999;DHT22;10211;49.476;11.010;2023-07-28T07:05:43;18.00;99.90
16999;DHT22;10211;49.476;11.010;2023-07-28T07:08:09;17.90;99.90
16999;DHT22;10211;49.476;11.010;2023-07-28T07:10:38;18.00;99.90
16999;DHT22;10211;49.476;11.010;2023-07-28T07:13:05;17.90;99.90
16999;DHT22;10211;49.476;11.010;2023-07-28T07:15:34;17.90;99.90
16999;DHT22;10211;49.476;11.010;2023-07-28T07:18:01;17.90;99.90
16999;DHT22;10211;49.476;11.010;2023-07-28T07:20:28;18.00;99.90
16999;DHT22;10211;49.476;11.010;2023-07-28T07:22:54;18.10;99.90
16999;DHT22;10211;49.476;11.010;2023-07-28T07:25:21;18.10;99.90
16999;DHT22;10211;49.476;11.010;2023-07-28T07:27:49;18.10;99.90
16999;DHT22;10211;49.476;11.010;2023-07-28T07:30:16;18.20;99.90
16999;DHT22;10211;49.476;11.010;2023-07-28T07:32:43;18.40;99.90
16999;DHT22;10211;49.476;11.010;2023-07-28T07:35:10;18.70;99.90
16999;DHT22;10211;49.476;11.010;2023-07-28T07:37:37;18.90;99.90
16999;DHT22;10211;49.476;11.010;2023-07-28T07:40:05;19.40;99.90
16999;DHT22;10211;49.476;11.010;2023-07-28T07:42:41;19.40;99.90
16999;DHT22;10211;49.476;11.010;2023-07-28T07:45:11;19.40;99.90
16999;DHT22;10211;49.476;11.010;2023-07-28T07:47:38;19.30;99.90
16999;DHT22;10211;49.476;11.010;2023-07-28T07:50:06;19.20;99.90
16999;DHT22;10211;49.476;11.010;2023-07-28T07:52:34;19.30;99.90
16999;DHT22;10211;49.476;11.010;2023-07-28T07:55:01;19.50;99.90
16999;DHT22;10211;49.476;11.010;2023-07-28T07:57:27;20.00;99.90
16999;DHT22;10211;49.476;11.010;2023-07-28T07:59:54;20.60;99.90
16999;DHT22;10211;49.476;11.010;2023-07-28T08:02:22;21.20;99.90
16999;DHT22;10211;49.476;11.010;2023-07-28T08:04:51;21.50;99.90
16999;DHT22;10211;49.476;11.010;2023-07-28T08:07:18;21.90;99.90
16999;DHT22;10211;49.476;11.010;2023-07-28T08:09:45;22.20;99.90
16999;DHT22;10211;49.476;11.010;2023-07-28T08:12:12;22.40;99.90
16999;DHT22;10211;49.476;11.010;2023-07-28T08:14:39;22.50;99.90
16999;DHT22;10211;49.476;11.010;2023-07-28T08:17:06;22.50;99.90
16999;DHT22;10211;49.476;11.010;2023-07-28T08:19:34;22.50;99.90
16999;DHT22;10211;49.476;11.010;2023-07-28T08:22:01;22.40;99.90
16999;DHT22;10211;49.476;11.010;2023-07-28T08:24:28;22.40;99.90
16999;DHT22;10211;49.476;11.010;2023-07-28T08:26:55;22.40;99.90
16999;DHT22;10211;49.476;11.010;2023-07-28T08:29:22;22.40;99.90
16999;DHT22;10211;49.476;11.010;2023-07-28T08:31:48;22.40;99.90
16999;DHT22;10211;49.476;11.010;2023-07-28T08:34:16;22.50;99.90
16999;DHT22;10211;49.476;11.010;2023-07-28T08:36:44;22.40;99.90
16999;DHT22;10211;49.476;11.010;2023-07-28T08:39:11;22.50;99.90
16999;DHT22;10211;49.476;11.010;2023-07-28T08:41:38;22.10;99.90
16999;DHT22;10211;49.476;11.010;2023-07-28T08:44:05;21.90;99.90
16999;DHT22;10211;49.476;11.010;2023-07-28T08:46:32;21.70;99.90
16999;DHT22;10211;49.476;11.010;2023-07-28T08:48:59;21.40;99.90
16999;DHT22;10211;49.476;11.010;2023-07-28T08:51:26;21.20;99.90
16999;DHT22;10211;49.476;11.010;2023-07-28T08:53:54;21.30;99.90
16999;DHT22;10211;49.476;11.010;2023-07-28T08:56:22;21.40;99.90
16999;DHT22;10211;49.476;11.010;2023-07-28T08:58:57;21.50;99.90
16999;DHT22;10211;49.476;11.010;2023-07-28T09:01:24;21.70;99.90
16999;DHT22;10211;49.476;11.010;2023-07-28T09:03:51;21.90;99.90
16999;DHT22;10211;49.476;11.010;2023-07-28T09:06:28;22.20;99.90
16999;DHT22;10211;49.476;11.010;2023-07-28T09:08:57;22.00;99.90
16999;DHT22;10211;49.476;11.010;2023-07-28T09:11:25;21.90;99.90
16999;DHT22;10211;49.476;11.010;2023-07-28T09:13:54;21.80;99.90
16999;DHT22;10211;49.476;11.010;2023-07-28T09:16:21;21.80;99.90
16999;DHT22;10211;49.476;11.010;2023-07-28T09:18:51;21.90;99.90
16999;DHT22;10211;49.476;11.010;2023-07-28T09:21:19;21.90;99.90
16999;DHT22;10211;49.476;11.010;2023-07-28T09:23:46;21.70;99.90
16999;DHT22;10211;49.476;11.010;2023-07-28T09:26:15;21.70;99.90
16999;DHT22;10211;49.476;11.010;2023-07-28T09:28:43;21.90;99.90
16999;DHT22;10211;49.476;11.010;2023-07-28T09:31:10;22.00;99.90
16999;DHT22;10211;49.476;11.010;2023-07-28T09:33:37;22.00;99.90
16999;DHT22;10211;49.476;11.010;2023-07-28T09:36:08;22.00;99.90
16999;DHT22;10211;49.476;11.010;2023-07-28T09:38:36;22.10;99.90
16999;DHT22;10211;49.476;11.010;2023-07-28T09:41:04;22.20;99.90
16999;DHT22;10211;49.476;11.010;2023-07-28T09:43:34;22.10;99.90
16999;DHT22;10211;49.476;11.010;2023-07-28T09:46:03;22.00;99.90
16999;DHT22;10211;49.476;11.010;2023-07-28T09:48:32;22.00;99.90
16999;DHT22;10211;49.476;11.010;2023-07-28T09:51:03;21.90;99.90
16999;DHT22;10211;49.476;11.010;2023-07-28T09:53:34;21.70;99.90
16999;DHT22;10211;49.476;11.010;2023-07-28T09:56:02;21.50;99.90
16999;DHT22;10211;49.476;11.010;2023-07-28T09:58:36;21.40;99.90
16999;DHT22;10211;49.476;11.010;2023-07-28T10:01:05;21.40;99.90
16999;DHT22;10211;49.476;11.010;2023-07-28T10:03:32;21.10;99.90
16999;DHT22;10211;49.476;11.010;2023-07-28T10:05:59;21.00;99.90
16999;DHT22;10211;49.476;11.010;2023-07-28T10:08:26;21.00;99.90
16999;DHT22;10211;49.476;11.010;2023-07-28T10:10:54;20.90;99.90
16999;DHT22;10211;49.476;11.010;2023-07-28T10:13:22;20.90;99.90
16999;DHT22;10211;49.476;11.010;2023-07-28T10:15:50;20.70;99.90
16999;DHT22;10211;49.476;11.010;2023-07-28T10:18:20;20.60;99.90
16999;DHT22;10211;49.476;11.010;2023-07-28T10:20:47;20.50;99.90
16999;DHT22;10211;49.476;11.010;2023-07-28T10:23:16;20.40;99.90
16999;DHT22;10211;49.476;11.010;2023-07-28T10:25:44;20.40;99.90
16999;DHT22;10211;49.476;11.010;2023-07-28T10:28:28;20.70;99.90
16999;DHT22;10211;49.476;11.010;2023-07-28T10:30:59;20.80;99.90
16999;DHT22;10211;49.476;11.010;2023-07-28T10:33:30;21.10;99.90
16999;DHT22;10211;49.476;11.010;2023-07-28T10:35:59;21.60;99.90
16999;DHT22;10211;49.476;11.010;2023-07-28T10:38:30;22.30;99.90
16999;DHT22;10211;49.476;11.010;2023-07-28T10:41:21;22.80;99.90
16999;DHT22;10211;49.476;11.010;2023-07-28T10:43:48;23.40;99.90
16999;DHT22;10211;49.476;11.010;2023-07-28T10:46:17;23.60;99.90
16999;DHT22;10211;49.476;11.010;2023-07-28T10:48:46;23.70;99.90
16999;DHT22;10211;49.476;11.010;2023-07-28T10:51:20;23.80;99.90
16999;DHT22;10211;49.476;11.010;2023-07-28T10:53:50;24.70;99.90
16999;DHT22;10211;49.476;11.010;2023-07-28T10:56:17;25.90;99.90
16999;DHT22;10211;49.476;11.010;2023-07-28T10:58:44;26.20;99.90
16999;DHT22;10211;49.476;11.010;2023-07-28T11:01:11;26.00;99.90
16999;DHT22;10211;49.476;11.010;2023-07-28T11:03:40;25.90;99.90
16999;DHT22;10211;49.476;11.010;2023-07-28T11:06:07;25.70;99.90
16999;DHT22;10211;49.476;11.010;2023-07-28T11:08:33;25.70;99.90
16999;DHT22;10211;49.476;11.010;2023-07-28T11:11:04;25.60;99.90
16999;DHT22;10211;49.476;11.010;2023-07-28T11:13:31;25.70;99.90
16999;DHT22;10211;49.476;11.010;2023-07-28T11:15:58;25.50;99.90
16999;DHT22;10211;49.476;11.010;2023-07-28T11:18:25;25.60;99.90
16999;DHT22;10211;49.476;11.010;2023-07-28T11:20:54;28.10;99.90
16999;DHT22;10211;49.476;11.010;2023-07-28T11:23:20;30.90;99.90
16999;DHT22;10211;49.476;11.010;2023-07-28T11:25:47;32.30;94.90
16999;DHT22;10211;49.476;11.010;2023-07-28T11:28:14;32.50;91.80
16999;DHT22;10211;49.476;11.010;2023-07-28T11:30:41;32.20;90.30
16999;DHT22;10211;49.476;11.010;2023-07-28T11:33:10;31.30;90.50
16999;DHT22;10211;49.476;11.010;2023-07-28T11:35:38;29.90;91.40
16999;DHT22;10211;49.476;11.010;2023-07-28T11:38:07;28.40;93.60
16999;DHT22;10211;49.476;11.010;2023-07-28T11:40:35;27.50;96.50
16999;DHT22;10211;49.476;11.010;2023-07-28T11:43:02;26.80;98.70
16999;DHT22;10211;49.476;11.010;2023-07-28T11:45:30;26.10;99.90
16999;DHT22;10211;49.476;11.010;2023-07-28T11:47:58;26.40;99.90
16999;DHT22;10211;49.476;11.010;2023-07-28T11:50:26;27.20;99.90
16999;DHT22;10211;49.476;11.010;2023-07-28T11:52:54;27.80;99.90
16999;DHT22;10211;49.476;11.010;2023-07-28T11:55:23;28.00;99.00
16999;DHT22;10211;49.476;11.010;2023-07-28T11:57:51;27.60;99.00
16999;DHT22;10211;49.476;11.010;2023-07-28T12:00:19;27.40;99.60
16999;DHT22;10211;49.476;11.010;2023-07-28T12:03:01;26.80;99.10
16999;DHT22;10211;49.476;11.010;2023-07-28T12:05:29;27.10;99.90
16999;DHT22;10211;49.476;11.010;2023-07-28T12:07:56;28.80;98.10
16999;DHT22;10211;49.476;11.010;2023-07-28T12:10:30;29.50;95.10
16999;DHT22;10211;49.476;11.010;2023-07-28T12:13:07;29.20;94.60
16999;DHT22;10211;49.476;11.010;2023-07-28T12:15:39;28.20;95.10
16999;DHT22;10211;49.476;11.010;2023-07-28T12:18:09;27.90;96.50
16999;DHT22;10211;49.476;11.010;2023-07-28T12:20:39;29.10;95.30
16999;DHT22;10211;49.476;11.010;2023-07-28T12:23:08;30.30;92.60
16999;DHT22;10211;49.476;11.010;2023-07-28T12:25:38;30.50;92.00
16999;DHT22;10211;49.476;11.010;2023-07-28T12:28:05;30.50;92.30
16999;DHT22;10211;49.476;11.010;2023-07-28T12:30:33;30.10;91.50
16999;DHT22;10211;49.476;11.010;2023-07-28T12:33:00;29.70;92.60
16999;DHT22;10211;49.476;11.010;2023-07-28T12:35:27;30.00;92.80
16999;DHT22;10211;49.476;11.010;2023-07-28T12:37:56;30.50;91.20
16999;DHT22;10211;49.476;11.010;2023-07-28T12:40:26;29.60;91.60
16999;DHT22;10211;49.476;11.010;2023-07-28T12:42:56;28.80;92.90
16999;DHT22;10211;49.476;11.010;2023-07-28T12:45:24;28.40;94.50
16999;DHT22;10211;49.476;11.010;2023-07-28T12:47:51;28.40;93.70
16999;DHT22;10211;49.476;11.010;2023-07-28T12:50:18;28.00;94.60
16999;DHT22;10211;49.476;11.010;2023-07-28T12:52:46;27.40;95.40
16999;DHT22;10211;49.476;11.010;2023-07-28T12:55:13;26.70;97.00
16999;DHT22;10211;49.476;11.010;2023-07-28T12:57:40;26.50;98.80
16999;DHT22;10211;49.476;11.010;2023-07-28T13:00:10;27.40;98.90
16999;DHT22;10211;49.476;11.010;2023-07-28T13:02:39;28.30;96.00
16999;DHT22;10211;49.476;11.010;2023-07-28T13:05:06;28.70;95.90
16999;DHT22;10211;49.476;11.010;2023-07-28T13:07:34;28.80;95.10
16999;DHT22;10211;49.476;11.010;2023-07-28T13:10:01;28.20;95.20
16999;DHT22;10211;49.476;11.010;2023-07-28T13:12:29;27.20;95.80
16999;DHT22;10211;49.476;11.010;2023-07-28T13:14:56;26.00;98.00
16999;DHT22;10211;49.476;11.010;2023-07-28T13:17:24;25.60;99.90
16999;DHT22;10211;49.476;11.010;2023-07-28T13:19:51;25.40;99.90
16999;DHT22;10211;49.476;11.010;2023-07-28T13:22:17;25.40;99.90
16999;DHT22;10211;49.476;11.010;2023-07-28T13:24:44;25.40;99.90
16999;DHT22;10211;49.476;11.010;2023-07-28T13:27:11;25.40;99.90
16999;DHT22;10211;49.476;11.010;2023-07-28T13:29:38;25.50;99.90
16999;DHT22;10211;49.476;11.010;2023-07-28T13:32:15;25.70;99.90
16999;DHT22;10211;49.476;11.010;2023-07-28T13:34:43;25.90;99.90
16999;DHT22;10211;49.476;11.010;2023-07-28T13:37:10;25.90;99.90
16999;DHT22;10211;49.476;11.010;2023-07-28T13:39:37;26.00;99.90
16999;DHT22;10211;49.476;11.010;2023-07-28T13:42:04;25.90;99.90
16999;DHT22;10211;49.476;11.010;2023-07-28T13:44:30;25.90;99.90
16999;DHT22;10211;49.476;11.010;2023-07-28T13:46:57;25.90;99.90
16999;DHT22;10211;49.476;11.010;2023-07-28T13:49:24;25.90;99.90
16999;DHT22;10211;49.476;11.010;2023-07-28T13:51:52;26.10;99.90
16999;DHT22;10211;49.476;11.010;2023-07-28T13:54:19;26.20;99.90
16999;DHT22;10211;49.476;11.010;2023-07-28T13:56:45;26.20;99.90
16999;DHT22;10211;49.476;11.010;2023-07-28T13:59:12;26.20;99.90
16999;DHT22;10211;49.476;11.010;2023-07-28T14:01:39;26.10;99.90
16999;DHT22;10211;49.476;11.010;2023-07-28T14:04:06;25.90;99.90
16999;DHT22;10211;49.476;11.010;2023-07-28T14:06:33;25.80;99.90
16999;DHT22;10211;49.476;11.010;2023-07-28T14:09:01;25.50;99.90
16999;DHT22;10211;49.476;11.010;2023-07-28T14:11:28;25.40;99.90
16999;DHT22;10211;49.476;11.010;2023-07-28T14:13:54;25.50;99.90
16999;DHT22;10211;49.476;11.010;2023-07-28T14:16:21;25.60;99.90
16999;DHT22;10211;49.476;11.010;2023-07-28T14:18:48;25.70;99.90
16999;DHT22;10211;49.476;11.010;2023-07-28T14:21:15;25.80;99.90
16999;DHT22;10211;49.476;11.010;2023-07-28T14:23:42;25.90;99.90
16999;DHT22;10211;49.476;11.010;2023-07-28T14:26:10;26.00;99.90
16999;DHT22;10211;49.476;11.010;2023-07-28T14:28:37;26.00;99.90
16999;DHT22;10211;49.476;11.010;2023-07-28T14:31:04;26.00;99.90
16999;DHT22;10211;49.476;11.010;2023-07-28T14:33:31;25.90;99.90
16999;DHT22;10211;49.476;11.010;2023-07-28T14:35:57;25.80;99.90
16999;DHT22;10211;49.476;11.010;2023-07-28T14:38:24;25.50;99.90
16999;DHT22;10211;49.476;11.010;2023-07-28T14:40:51;25.30;99.90
16999;DHT22;10211;49.476;11.010;2023-07-28T14:43:19;25.20;99.90
16999;DHT22;10211;49.476;11.010;2023-07-28T14:45:46;25.20;99.90
16999;DHT22;10211;49.476;11.010;2023-07-28T14:48:15;25.20;99.90
16999;DHT22;10211;49.476;11.010;2023-07-28T14:50:42;25.30;99.90
16999;DHT22;10211;49.476;11.010;2023-07-28T14:53:27;25.20;99.90
16999;DHT22;10211;49.476;11.010;2023-07-28T14:55:55;25.20;99.90
16999;DHT22;10211;49.476;11.010;2023-07-28T14:58:23;25.10;99.90
16999;DHT22;10211;49.476;11.010;2023-07-28T15:00:50;25.10;99.90
16999;DHT22;10211;49.476;11.010;2023-07-28T15:03:17;25.10;99.90
16999;DHT22;10211;49.476;11.010;2023-07-28T15:05:43;25.10;99.90
16999;DHT22;10211;49.476;11.010;2023-07-28T15:08:10;25.20;99.90
16999;DHT22;10211;49.476;11.010;2023-07-28T15:10:37;24.90;99.90
16999;DHT22;10211;49.476;11.010;2023-07-28T15:13:03;24.80;99.90
16999;DHT22;10211;49.476;11.010;2023-07-28T15:15:32;24.70;99.90
16999;DHT22;10211;49.476;11.010;2023-07-28T15:17:58;24.70;99.90